Allouez, Wisconsin
Current Conditions -  °F | °C
As of 7:53 PM on Tuesday 25 Nov 2014 (Local Time) from KGRB Reporting Station
Overcast Overcast  
Wind Chill: 21°   Ceiling: 2000
Heat Index: 21°   Visibility: 10mi
Dew Point: 15°   Wind: 3mph
Humidity: 78%   Direction: 220°SW
Pressure: 30.12"   Gusts: NA
Location:  44.48°N, 88.02°W
Report Text: KGRB 260153Z 22003KT 10SM OVC020 M06/M09 A3012 RMK AO2 SLP212 T10611094
Loading
Personal Weather Stations






























Interactive Weather Map New forecast layout! Learn more

10-Day Weather Forecast

Advertisements
Track Severe Weather on mobile